createdAt,value
2023-07-15T00:00:23.083Z,28.39
2023-07-15T00:01:23.065Z,28.38
2023-07-15T00:02:23.053Z,28.38
2023-07-15T00:03:23.096Z,28.38
2023-07-15T00:04:23.010Z,28.34
2023-07-15T00:05:23.013Z,28.38
2023-07-15T00:06:23.014Z,28.35
2023-07-15T00:07:23.010Z,28.35
2023-07-15T00:08:23.023Z,28.35
2023-07-15T00:09:23.003Z,28.39
2023-07-15T00:10:23.076Z,28.35
2023-07-15T00:11:22.991Z,28.36
2023-07-15T00:12:23.003Z,28.36
2023-07-15T00:13:23.003Z,28.35
2023-07-15T00:14:22.991Z,28.35
2023-07-15T00:15:22.980Z,28.36
2023-07-15T00:16:23.001Z,28.36
2023-07-15T00:17:22.995Z,28.35
2023-07-15T00:18:22.979Z,28.32
2023-07-15T00:19:22.960Z,28.34
2023-07-15T00:20:22.957Z,28.34
2023-07-15T00:21:22.959Z,28.34
2023-07-15T00:22:23.139Z,28.32
2023-07-15T00:23:22.961Z,28.32
2023-07-15T00:24:22.966Z,28.32
2023-07-15T00:25:22.938Z,28.31
2023-07-15T00:26:22.951Z,28.31
2023-07-15T00:27:22.938Z,28.31
2023-07-15T00:28:22.947Z,28.31
2023-07-15T00:29:22.935Z,28.34
2023-07-15T00:30:22.954Z,28.32
2023-07-15T00:31:22.965Z,28.31
2023-07-15T00:32:22.948Z,28.31
2023-07-15T00:33:22.947Z,28.32
2023-07-15T00:34:22.919Z,28.32
2023-07-15T00:35:22.921Z,28.29
2023-07-15T00:36:22.933Z,28.28
2023-07-15T00:37:22.931Z,28.31
2023-07-15T00:38:22.927Z,28.28
2023-07-15T00:39:22.932Z,28.32
2023-07-15T00:40:22.924Z,28.31
2023-07-15T00:41:22.927Z,28.31
2023-07-15T00:42:22.899Z,28.29
2023-07-15T00:43:22.936Z,28.31
2023-07-15T00:44:22.905Z,28.28
2023-07-15T00:45:22.895Z,28.28
2023-07-15T00:46:22.969Z,28.28
2023-07-15T00:47:23.279Z,28.31
2023-07-15T00:48:22.916Z,28.29
2023-07-15T00:49:22.959Z,28.29
2023-07-15T00:50:22.905Z,28.28
2023-07-15T00:51:22.920Z,28.31
2023-07-15T00:52:22.898Z,28.29
2023-07-15T00:53:22.872Z,28.29
2023-07-15T00:54:22.879Z,28.28
2023-07-15T00:55:22.877Z,28.28
2023-07-15T00:56:22.865Z,28.31
2023-07-15T00:57:22.890Z,28.28
2023-07-15T00:58:22.852Z,28.26
2023-07-15T00:59:22.850Z,28.29
2023-07-15T01:00:22.884Z,28.26
2023-07-15T01:01:22.897Z,28.25
2023-07-15T01:02:22.951Z,28.25
2023-07-15T01:03:23.002Z,28.28
2023-07-15T01:04:22.804Z,28.23
2023-07-15T01:05:22.830Z,28.26
2023-07-15T01:06:22.798Z,28.26
2023-07-15T01:07:22.839Z,28.25
2023-07-15T01:08:22.832Z,28.25
2023-07-15T01:09:22.833Z,28.25
2023-07-15T01:10:22.834Z,28.25
2023-07-15T01:11:22.838Z,28.26
2023-07-15T01:12:22.878Z,28.22
2023-07-15T01:13:22.808Z,28.23
2023-07-15T01:14:22.815Z,28.26
2023-07-15T01:15:22.820Z,28.25
2023-07-15T01:16:22.875Z,28.25
2023-07-15T01:17:22.859Z,28.26
2023-07-15T01:18:22.813Z,28.25
2023-07-15T01:19:22.783Z,28.25
2023-07-15T01:20:22.787Z,28.25
2023-07-15T01:21:22.816Z,28.26
2023-07-15T01:22:22.846Z,28.26
2023-07-15T01:23:22.828Z,28.25
2023-07-15T01:24:22.822Z,28.25
2023-07-15T01:25:22.830Z,28.25
2023-07-15T01:26:22.853Z,28.23
2023-07-15T01:27:22.862Z,28.26
2023-07-15T01:28:22.870Z,28.26
2023-07-15T01:29:22.861Z,28.25
2023-07-15T01:30:22.876Z,28.25
2023-07-15T01:31:22.916Z,28.25
2023-07-15T01:32:22.907Z,28.25
2023-07-15T01:33:22.903Z,28.26
2023-07-15T01:34:22.912Z,28.23
2023-07-15T01:35:22.908Z,28.25
2023-07-15T01:36:22.910Z,28.23
2023-07-15T01:37:22.919Z,28.23
2023-07-15T01:38:22.950Z,28.21
2023-07-15T01:39:22.950Z,28.22
2023-07-15T01:40:22.954Z,28.21
2023-07-15T01:41:22.959Z,28.22
2023-07-15T01:42:22.998Z,28.22
2023-07-15T01:43:23.020Z,28.23
2023-07-15T01:44:23.055Z,28.21
2023-07-15T01:45:23.024Z,28.22
2023-07-15T01:46:23.038Z,28.22
2023-07-15T01:47:23.053Z,28.23
2023-07-15T01:48:26.087Z,28.21
2023-07-15T01:49:23.073Z,28.21
2023-07-15T01:50:23.066Z,28.22
2023-07-15T01:51:23.074Z,28.21
2023-07-15T01:52:23.076Z,28.22
2023-07-15T01:53:23.108Z,28.22
2023-07-15T01:54:23.127Z,28.21
2023-07-15T01:55:23.120Z,28.22
2023-07-15T01:56:23.113Z,28.21
2023-07-15T01:57:23.119Z,28.19
2023-07-15T01:58:23.147Z,28.22
2023-07-15T01:59:23.157Z,28.19
2023-07-15T02:00:23.150Z,28.21
2023-07-15T02:01:23.236Z,28.21
2023-07-15T02:02:23.277Z,28.18
2023-07-15T02:03:23.242Z,28.19
2023-07-15T02:04:23.194Z,28.19
2023-07-15T02:05:23.196Z,28.21
2023-07-15T02:06:23.434Z,28.18
2023-07-15T02:07:23.200Z,28.19
2023-07-15T02:08:23.239Z,28.21
2023-07-15T02:09:23.243Z,28.18
2023-07-15T02:10:23.244Z,28.19
2023-07-15T02:11:23.243Z,28.19
2023-07-15T02:12:23.260Z,28.18
2023-07-15T02:13:23.265Z,28.16
2023-07-15T02:14:23.288Z,28.16
2023-07-15T02:15:23.264Z,28.16
2023-07-15T02:16:23.310Z,28.18
2023-07-15T02:17:23.321Z,28.16
2023-07-15T02:18:23.293Z,28.15
2023-07-15T02:19:23.323Z,28.16
2023-07-15T02:20:23.354Z,28.16
2023-07-15T02:21:23.376Z,28.15
2023-07-15T02:22:23.471Z,28.18
2023-07-15T02:23:23.428Z,28.15
2023-07-15T02:24:23.482Z,28.15
2023-07-15T02:25:23.501Z,28.15
2023-07-15T02:26:23.541Z,28.16
2023-07-15T02:27:23.555Z,28.14
2023-07-15T02:28:23.613Z,28.14
2023-07-15T02:29:23.614Z,28.15
2023-07-15T02:30:23.645Z,28.12
2023-07-15T02:31:23.738Z,28.14
2023-07-15T02:32:23.763Z,28.14
2023-07-15T02:33:23.720Z,28.12
2023-07-15T02:34:23.758Z,28.12
2023-07-15T02:35:23.790Z,28.11
2023-07-15T02:36:23.806Z,28.11
2023-07-15T02:37:23.848Z,28.14
2023-07-15T02:38:23.864Z,28.12
2023-07-15T02:39:23.914Z,28.15
2023-07-15T02:40:23.957Z,28.14
2023-07-15T02:41:23.964Z,28.14
2023-07-15T02:42:24.007Z,28.12
2023-07-15T02:43:24.008Z,28.14
2023-07-15T02:44:24.049Z,28.12
2023-07-15T02:45:24.071Z,28.15
2023-07-15T02:46:24.180Z,28.12
2023-07-15T02:47:24.202Z,28.15
2023-07-15T02:48:24.188Z,28.14
2023-07-15T02:49:24.216Z,28.14
2023-07-15T02:50:24.223Z,28.14
2023-07-15T02:51:24.255Z,28.14
2023-07-15T02:52:24.296Z,28.15
2023-07-15T02:53:24.296Z,28.14
2023-07-15T02:54:24.334Z,28.11
2023-07-15T02:55:24.330Z,28.11
2023-07-15T02:56:24.388Z,28.11
2023-07-15T02:57:24.406Z,28.11
2023-07-15T02:58:24.407Z,28.12
2023-07-15T02:59:24.445Z,28.09
2023-07-15T03:00:24.440Z,28.11
2023-07-15T03:01:24.470Z,28.12
2023-07-15T03:02:24.531Z,28.12
2023-07-15T03:03:24.498Z,28.11
2023-07-15T03:04:24.506Z,28.12
2023-07-15T03:05:24.592Z,28.09
2023-07-15T03:06:24.558Z,28.11
2023-07-15T03:07:24.545Z,28.11
2023-07-15T03:08:24.554Z,28.11
2023-07-15T03:09:24.561Z,28.11
2023-07-15T03:10:24.542Z,28.09
2023-07-15T03:11:24.537Z,28.09
2023-07-15T03:12:24.525Z,28.11
2023-07-15T03:13:24.519Z,28.11
2023-07-15T03:14:24.509Z,28.11
2023-07-15T03:15:24.518Z,28.09
2023-07-15T03:16:24.539Z,28.11
2023-07-15T03:17:24.570Z,28.11
2023-07-15T03:18:24.484Z,28.09
2023-07-15T03:19:24.495Z,28.12
2023-07-15T03:20:24.506Z,28.11
2023-07-15T03:21:24.482Z,28.11
2023-07-15T03:22:24.508Z,28.11
2023-07-15T03:23:24.476Z,28.09
2023-07-15T03:24:24.477Z,28.08
2023-07-15T03:25:24.465Z,28.09
2023-07-15T03:26:24.451Z,28.09
2023-07-15T03:27:24.465Z,28.11
2023-07-15T03:28:24.448Z,28.09
2023-07-15T03:29:24.435Z,28.09
2023-07-15T03:30:24.431Z,28.09
2023-07-15T03:31:24.447Z,28.09
2023-07-15T03:32:24.436Z,28.12
2023-07-15T03:33:24.508Z,28.09
2023-07-15T03:34:27.008Z,28.09
2023-07-15T03:35:24.389Z,28.09
2023-07-15T03:36:24.380Z,28.08
2023-07-15T03:37:24.378Z,28.08
2023-07-15T03:38:24.382Z,28.07
2023-07-15T03:39:24.366Z,28.09
2023-07-15T03:40:24.358Z,28.08
2023-07-15T03:41:24.353Z,28.09
2023-07-15T03:42:24.330Z,28.08
2023-07-15T03:43:24.334Z,28.07
2023-07-15T03:44:24.335Z,28.08
2023-07-15T03:45:24.324Z,28.11
2023-07-15T03:46:24.386Z,28.09
2023-07-15T03:47:24.417Z,28.11
2023-07-15T03:48:24.305Z,28.08
2023-07-15T03:49:24.310Z,28.08
2023-07-15T03:50:24.290Z,28.08
2023-07-15T03:51:24.277Z,28.07
2023-07-15T03:52:24.286Z,28.09
2023-07-15T03:53:24.285Z,28.08
2023-07-15T03:54:24.280Z,28.07
2023-07-15T03:55:24.290Z,28.08
2023-07-15T03:56:24.273Z,28.08
2023-07-15T03:57:24.261Z,28.05
2023-07-15T03:58:24.256Z,28.09
2023-07-15T03:59:24.256Z,28.08
2023-07-15T04:00:24.256Z,28.09
2023-07-15T04:01:24.337Z,28.07
2023-07-15T04:02:24.269Z,28.08
2023-07-15T04:03:24.268Z,28.09
2023-07-15T04:04:24.252Z,28.07
2023-07-15T04:05:24.232Z,28.05
2023-07-15T04:06:24.241Z,28.07
2023-07-15T04:07:24.236Z,28.07
2023-07-15T04:08:24.242Z,28.05
2023-07-15T04:09:24.238Z,28.07
2023-07-15T04:10:24.242Z,28.05
2023-07-15T04:11:24.237Z,28.07
2023-07-15T04:12:24.245Z,28.04
2023-07-15T04:13:24.298Z,28.05
2023-07-15T04:14:24.296Z,28.08
2023-07-15T04:15:24.323Z,28.08
2023-07-15T04:16:24.384Z,28.07
2023-07-15T04:17:24.396Z,28.07
2023-07-15T04:18:24.408Z,28.05
2023-07-15T04:19:24.428Z,28.07
2023-07-15T04:20:24.472Z,28.07
2023-07-15T04:21:24.495Z,28.08
2023-07-15T04:22:24.522Z,28.07
2023-07-15T04:23:24.474Z,28.09
2023-07-15T04:24:24.464Z,28.08
2023-07-15T04:25:24.471Z,28.08
2023-07-15T04:26:24.483Z,28.05
2023-07-15T04:27:24.497Z,28.07
2023-07-15T04:28:24.463Z,28.07
2023-07-15T04:29:24.486Z,28.08
2023-07-15T04:30:24.476Z,28.07
2023-07-15T04:31:24.507Z,28.07
2023-07-15T04:32:24.480Z,28.07
2023-07-15T04:33:24.448Z,28.05
2023-07-15T04:34:25.830Z,28.03
2023-07-15T04:35:24.441Z,28.07
2023-07-15T04:36:24.446Z,28.03
2023-07-15T04:37:24.435Z,28.05
2023-07-15T04:38:24.431Z,28.04
2023-07-15T04:39:24.426Z,28.04
2023-07-15T04:40:24.437Z,28.05
2023-07-15T04:41:24.425Z,28.03
2023-07-15T04:42:24.451Z,28.03
2023-07-15T04:43:24.495Z,28.04
2023-07-15T04:44:24.540Z,28.03
2023-07-15T04:45:24.561Z,28.05
2023-07-15T04:46:24.606Z,28.03
2023-07-15T04:47:24.588Z,28.00
2023-07-15T04:48:24.569Z,28.03
2023-07-15T04:49:24.547Z,28.01
2023-07-15T04:50:24.544Z,28.01
2023-07-15T04:51:24.561Z,28.00
2023-07-15T04:52:24.567Z,28.03
2023-07-15T04:53:24.575Z,28.01
2023-07-15T04:54:24.573Z,28.01
2023-07-15T04:55:24.585Z,28.01
2023-07-15T04:56:24.578Z,28.03
2023-07-15T04:57:24.566Z,28.03
2023-07-15T04:58:24.581Z,28.00
2023-07-15T04:59:24.584Z,28.01
2023-07-15T05:00:24.577Z,28.01
2023-07-15T05:01:24.621Z,28.01
2023-07-15T05:02:24.605Z,28.00
2023-07-15T05:03:24.606Z,28.00
2023-07-15T05:04:24.592Z,27.98
2023-07-15T05:05:24.597Z,27.98
2023-07-15T05:06:24.623Z,28.00
2023-07-15T05:07:24.675Z,27.98
2023-07-15T05:08:24.700Z,27.98
2023-07-15T05:09:24.755Z,28.00
2023-07-15T05:10:24.778Z,28.01
2023-07-15T05:11:24.803Z,28.00
2023-07-15T05:12:24.839Z,28.00
2023-07-15T05:13:24.866Z,27.98
2023-07-15T05:14:24.925Z,27.98
2023-07-15T05:15:25.009Z,28.00
2023-07-15T05:16:25.006Z,28.00
2023-07-15T05:17:25.022Z,27.98
2023-07-15T05:18:24.997Z,28.03
2023-07-15T05:19:25.018Z,28.00
2023-07-15T05:20:25.021Z,28.01
2023-07-15T05:21:25.034Z,28.00
2023-07-15T05:22:25.059Z,28.03
2023-07-15T05:23:25.058Z,28.03
2023-07-15T05:24:25.077Z,28.01
2023-07-15T05:25:25.079Z,28.03
2023-07-15T05:26:25.099Z,28.00
2023-07-15T05:27:25.112Z,28.01
2023-07-15T05:28:25.117Z,28.00
2023-07-15T05:29:25.143Z,28.03
2023-07-15T05:30:25.144Z,28.00
2023-07-15T05:31:25.227Z,28.01
2023-07-15T05:32:25.176Z,28.01
2023-07-15T05:33:25.140Z,28.00
2023-07-15T05:34:25.146Z,28.01
2023-07-15T05:35:25.144Z,28.01
2023-07-15T05:36:25.158Z,28.00
2023-07-15T05:37:25.151Z,27.98
2023-07-15T05:38:25.132Z,28.00
2023-07-15T05:39:25.133Z,28.00
2023-07-15T05:40:25.113Z,28.00
2023-07-15T05:41:25.122Z,27.98
2023-07-15T05:42:25.127Z,28.01
2023-07-15T05:43:25.116Z,27.97
2023-07-15T05:44:25.117Z,28.03
2023-07-15T05:45:25.116Z,28.00
2023-07-15T05:46:25.132Z,28.01
2023-07-15T05:47:25.103Z,28.03
2023-07-15T05:48:25.091Z,28.01
2023-07-15T05:49:25.117Z,28.01
2023-07-15T05:50:25.095Z,28.03
2023-07-15T05:51:25.065Z,28.03
2023-07-15T05:52:25.122Z,28.03
2023-07-15T05:53:25.057Z,28.00
2023-07-15T05:54:25.135Z,28.01
2023-07-15T05:55:25.034Z,28.01
2023-07-15T05:56:25.054Z,28.00
2023-07-15T05:57:25.089Z,28.01
2023-07-15T05:58:25.068Z,28.01
2023-07-15T05:59:25.091Z,28.01
2023-07-15T06:00:25.072Z,28.01
2023-07-15T06:01:25.088Z,28.00
2023-07-15T06:02:25.105Z,28.03
2023-07-15T06:03:25.130Z,28.01
2023-07-15T06:04:25.052Z,28.00
2023-07-15T06:05:25.047Z,28.01
2023-07-15T06:06:25.025Z,28.04
2023-07-15T06:07:25.023Z,28.04
2023-07-15T06:08:25.012Z,28.00
2023-07-15T06:09:25.032Z,28.04
2023-07-15T06:10:25.027Z,28.01
2023-07-15T06:11:24.996Z,28.03
2023-07-15T06:12:25.019Z,28.03
2023-07-15T06:13:26.221Z,28.07
2023-07-15T06:14:25.012Z,28.08
2023-07-15T06:15:24.970Z,28.11
2023-07-15T06:16:24.980Z,28.12
2023-07-15T06:17:25.066Z,28.12
2023-07-15T06:18:24.960Z,28.15
2023-07-15T06:19:24.956Z,28.16
2023-07-15T06:20:24.974Z,28.18
2023-07-15T06:21:24.932Z,28.19
2023-07-15T06:22:25.007Z,28.21
2023-07-15T06:23:24.938Z,28.22
2023-07-15T06:24:24.934Z,28.23
2023-07-15T06:25:24.919Z,28.25
2023-07-15T06:26:24.924Z,28.26
2023-07-15T06:27:24.922Z,28.26
2023-07-15T06:28:24.914Z,28.26
2023-07-15T06:29:24.918Z,28.29
2023-07-15T06:30:24.893Z,28.31
2023-07-15T06:31:25.058Z,28.34
2023-07-15T06:32:24.954Z,28.36
2023-07-15T06:33:24.897Z,28.34
2023-07-15T06:34:24.894Z,28.36
2023-07-15T06:35:24.876Z,28.36
2023-07-15T06:36:24.889Z,28.38
2023-07-15T06:37:24.899Z,28.39
2023-07-15T06:38:24.866Z,28.42
2023-07-15T06:39:24.903Z,28.42
2023-07-15T06:40:24.898Z,28.45
2023-07-15T06:41:24.866Z,28.45
2023-07-15T06:42:24.843Z,28.46
2023-07-15T06:43:24.840Z,28.48
2023-07-15T06:44:24.881Z,28.50
2023-07-15T06:45:24.899Z,28.52
2023-07-15T06:46:24.856Z,28.53
2023-07-15T06:47:24.859Z,28.52
2023-07-15T06:48:24.843Z,28.53
2023-07-15T06:49:24.845Z,28.55
2023-07-15T06:50:24.851Z,28.56
2023-07-15T06:51:24.833Z,28.58
2023-07-15T06:52:24.838Z,28.60
2023-07-15T06:53:24.823Z,28.58
2023-07-15T06:54:24.845Z,28.58
2023-07-15T06:55:24.845Z,28.59
2023-07-15T06:56:24.810Z,28.63
2023-07-15T06:57:24.810Z,28.63
2023-07-15T06:58:24.830Z,28.62
2023-07-15T06:59:24.817Z,28.63
2023-07-15T07:00:24.837Z,28.66
2023-07-15T07:01:24.829Z,28.66
2023-07-15T07:02:24.818Z,28.66
2023-07-15T07:03:24.797Z,28.66
2023-07-15T07:04:24.810Z,28.69
2023-07-15T07:05:24.851Z,28.66
2023-07-15T07:06:24.810Z,28.66
2023-07-15T07:07:24.848Z,28.66
2023-07-15T07:08:24.774Z,28.69
2023-07-15T07:09:24.779Z,28.69
2023-07-15T07:10:24.888Z,28.69
2023-07-15T07:11:24.770Z,28.70
2023-07-15T07:12:24.748Z,28.71
2023-07-15T07:13:24.741Z,28.71
2023-07-15T07:14:24.730Z,28.74
2023-07-15T07:15:24.746Z,28.74
2023-07-15T07:16:24.720Z,28.73
2023-07-15T07:17:24.720Z,28.74
2023-07-15T07:18:24.830Z,28.74
2023-07-15T07:19:24.722Z,28.77
2023-07-15T07:20:24.755Z,28.77
2023-07-15T07:21:24.693Z,28.79
2023-07-15T07:22:24.711Z,28.79
2023-07-15T07:23:24.678Z,28.80
2023-07-15T07:24:24.688Z,28.79
2023-07-15T07:25:24.664Z,28.83
2023-07-15T07:26:24.665Z,28.80
2023-07-15T07:27:24.651Z,28.84
2023-07-15T07:28:24.632Z,28.84
2023-07-15T07:29:24.648Z,28.86
2023-07-15T07:30:24.824Z,28.84
2023-07-15T07:31:24.690Z,28.86
2023-07-15T07:32:24.625Z,28.86
2023-07-15T07:33:24.591Z,28.86
2023-07-15T07:34:24.582Z,28.89
2023-07-15T07:35:24.577Z,28.91
2023-07-15T07:36:24.559Z,28.89
2023-07-15T07:37:24.557Z,28.89
2023-07-15T07:38:24.535Z,28.93
2023-07-15T07:39:24.536Z,28.91
2023-07-15T07:40:24.585Z,28.94
2023-07-15T07:41:24.511Z,28.91
2023-07-15T07:42:24.496Z,28.93
2023-07-15T07:43:24.482Z,28.96
2023-07-15T07:44:24.467Z,28.94
2023-07-15T07:45:24.466Z,28.96
2023-07-15T07:46:24.488Z,28.96
2023-07-15T07:47:24.472Z,28.96
2023-07-15T07:48:24.427Z,28.97
2023-07-15T07:49:24.415Z,28.96
2023-07-15T07:50:24.464Z,28.98
2023-07-15T07:51:24.458Z,29.00
2023-07-15T07:52:24.525Z,28.98
2023-07-15T07:53:24.564Z,29.00
2023-07-15T07:54:24.607Z,29.03
2023-07-15T07:55:24.668Z,29.00
2023-07-15T07:56:24.758Z,29.01
2023-07-15T07:57:24.794Z,29.01
2023-07-15T07:58:24.840Z,29.01
2023-07-15T07:59:24.919Z,29.01
2023-07-15T08:00:24.959Z,29.04
2023-07-15T08:01:25.037Z,29.03
2023-07-15T08:02:25.145Z,29.03
2023-07-15T08:03:25.278Z,29.03
2023-07-15T08:04:25.233Z,29.04
2023-07-15T08:05:25.270Z,29.03
2023-07-15T08:06:25.341Z,29.07
2023-07-15T08:07:25.345Z,29.03
2023-07-15T08:08:25.411Z,29.04
2023-07-15T08:09:25.451Z,29.05
2023-07-15T08:10:25.514Z,29.08
2023-07-15T08:11:25.556Z,29.07
2023-07-15T08:12:25.660Z,29.05
2023-07-15T08:13:25.670Z,29.07
2023-07-15T08:14:25.739Z,29.10
2023-07-15T08:15:25.805Z,29.07
2023-07-15T08:16:25.934Z,29.11
2023-07-15T08:17:25.924Z,29.08
2023-07-15T08:18:25.948Z,29.08
2023-07-15T08:19:25.941Z,29.08
2023-07-15T08:20:25.940Z,29.11
2023-07-15T08:21:25.930Z,29.10
2023-07-15T08:22:26.024Z,29.11
2023-07-15T08:23:25.918Z,29.13
2023-07-15T08:24:25.920Z,29.14
2023-07-15T08:25:25.900Z,29.13
2023-07-15T08:26:25.913Z,29.13
2023-07-15T08:27:25.890Z,29.15
2023-07-15T08:28:25.940Z,29.14
2023-07-15T08:29:26.008Z,29.18
2023-07-15T08:30:26.057Z,29.17
2023-07-15T08:31:26.112Z,29.15
2023-07-15T08:32:26.256Z,29.15
2023-07-15T08:33:26.192Z,29.17
2023-07-15T08:34:26.200Z,29.17
2023-07-15T08:35:26.205Z,29.18
2023-07-15T08:36:26.177Z,29.17
2023-07-15T08:37:26.280Z,29.20
2023-07-15T08:38:26.178Z,29.17
2023-07-15T08:39:26.171Z,29.17
2023-07-15T08:40:26.170Z,29.17
2023-07-15T08:41:26.222Z,29.21
2023-07-15T08:42:26.147Z,29.20
2023-07-15T08:43:26.122Z,29.21
2023-07-15T08:44:26.129Z,29.20
2023-07-15T08:45:26.109Z,29.22
2023-07-15T08:46:26.138Z,29.21
2023-07-15T08:47:26.121Z,29.24
2023-07-15T08:48:26.093Z,29.24
2023-07-15T08:49:26.072Z,29.22
2023-07-15T08:50:26.062Z,29.24
2023-07-15T08:51:26.110Z,29.26
2023-07-15T08:52:26.097Z,29.25
2023-07-15T08:53:26.051Z,29.25
2023-07-15T08:54:26.032Z,29.28
2023-07-15T08:55:26.048Z,29.28
2023-07-15T08:56:26.099Z,29.28
2023-07-15T08:57:26.203Z,29.28
2023-07-15T08:58:26.192Z,29.28
2023-07-15T08:59:26.244Z,29.25
2023-07-15T09:00:26.286Z,29.26
2023-07-15T09:01:26.451Z,29.29
2023-07-15T09:02:26.415Z,29.29
2023-07-15T09:03:26.472Z,29.29
2023-07-15T09:04:26.697Z,29.31
2023-07-15T09:05:26.523Z,29.31
2023-07-15T09:06:26.505Z,29.31
2023-07-15T09:07:26.500Z,29.31
2023-07-15T09:08:26.483Z,29.32
2023-07-15T09:09:26.493Z,29.32
2023-07-15T09:10:26.461Z,29.34
2023-07-15T09:11:26.428Z,29.34
2023-07-15T09:12:26.434Z,29.32
2023-07-15T09:13:26.437Z,29.35
2023-07-15T09:14:26.412Z,29.34
2023-07-15T09:15:26.400Z,29.36
2023-07-15T09:16:26.456Z,29.35
2023-07-15T09:17:26.737Z,29.31
2023-07-15T09:18:26.513Z,29.35
2023-07-15T09:19:26.539Z,29.34
2023-07-15T09:20:26.626Z,29.34
2023-07-15T09:21:26.591Z,29.34
2023-07-15T09:22:26.624Z,29.31
2023-07-15T09:23:26.560Z,29.35
2023-07-15T09:24:26.565Z,29.35
2023-07-15T09:25:26.581Z,29.36
2023-07-15T09:26:27.991Z,29.34
2023-07-15T09:27:26.489Z,29.34
2023-07-15T09:28:26.495Z,29.34
2023-07-15T09:29:26.490Z,29.34
2023-07-15T09:30:26.463Z,29.34
2023-07-15T09:31:26.589Z,29.34
2023-07-15T09:32:26.492Z,29.38
2023-07-15T09:33:26.437Z,29.36
2023-07-15T09:34:26.421Z,29.36
2023-07-15T09:35:26.407Z,29.36
2023-07-15T09:36:26.402Z,29.36
2023-07-15T09:37:26.402Z,29.38
2023-07-15T09:38:26.396Z,29.38
2023-07-15T09:39:26.392Z,29.38
2023-07-15T09:40:26.423Z,29.41
2023-07-15T09:41:26.461Z,29.41
2023-07-15T09:42:26.504Z,29.39
2023-07-15T09:43:26.546Z,29.42
2023-07-15T09:44:26.586Z,29.41
2023-07-15T09:45:26.608Z,29.39
2023-07-15T09:46:26.703Z,29.44
2023-07-15T09:47:26.753Z,29.45
2023-07-15T09:48:26.728Z,29.44
2023-07-15T09:49:26.757Z,29.44
2023-07-15T09:50:26.809Z,29.45
2023-07-15T09:51:26.813Z,29.45
2023-07-15T09:52:26.799Z,29.46
2023-07-15T09:53:26.788Z,29.45
2023-07-15T09:54:26.804Z,29.46
2023-07-15T09:55:26.768Z,29.46
2023-07-15T09:56:26.768Z,29.48
2023-07-15T09:57:26.748Z,29.48
2023-07-15T09:58:26.734Z,29.48
2023-07-15T09:59:26.731Z,29.46
2023-07-15T10:00:26.709Z,29.46
2023-07-15T10:01:26.763Z,29.45
2023-07-15T10:02:28.743Z,29.49
2023-07-15T10:03:26.712Z,29.49
2023-07-15T10:04:26.831Z,29.46
2023-07-15T10:05:26.770Z,29.46
2023-07-15T10:06:26.807Z,29.48
2023-07-15T10:07:26.840Z,29.48
2023-07-15T10:08:26.865Z,29.46
2023-07-15T10:09:26.903Z,29.48
2023-07-15T10:10:26.925Z,29.49
2023-07-15T10:11:26.983Z,29.49
2023-07-15T10:12:27.053Z,29.48
2023-07-15T10:13:27.034Z,29.52
2023-07-15T10:14:27.078Z,29.52
2023-07-15T10:15:27.126Z,29.49
2023-07-15T10:16:27.159Z,29.51
2023-07-15T10:17:27.159Z,29.48
2023-07-15T10:18:27.139Z,29.49
2023-07-15T10:19:27.117Z,29.51
2023-07-15T10:20:27.111Z,29.49
2023-07-15T10:21:27.083Z,29.49
2023-07-15T10:22:27.086Z,29.49
2023-07-15T10:23:27.044Z,29.52
2023-07-15T10:24:27.028Z,29.52
2023-07-15T10:25:27.013Z,29.53
2023-07-15T10:26:26.996Z,29.52
2023-07-15T10:27:26.983Z,29.51
2023-07-15T10:28:26.971Z,29.51
2023-07-15T10:29:26.997Z,29.52
2023-07-15T10:30:27.031Z,29.55
2023-07-15T10:31:27.382Z,29.55
2023-07-15T10:32:27.112Z,29.53
2023-07-15T10:33:26.996Z,29.52
2023-07-15T10:34:26.974Z,29.53
2023-07-15T10:35:26.977Z,29.55
2023-07-15T10:36:26.970Z,29.55
2023-07-15T10:37:26.969Z,29.55
2023-07-15T10:38:26.990Z,29.56
2023-07-15T10:39:26.964Z,29.56
2023-07-15T10:40:26.977Z,29.56
2023-07-15T10:41:26.951Z,29.55
2023-07-15T10:42:26.945Z,29.55
2023-07-15T10:43:29.422Z,29.56
2023-07-15T10:44:26.952Z,29.58
2023-07-15T10:45:26.941Z,29.58
2023-07-15T10:46:27.001Z,29.59
2023-07-15T10:47:26.959Z,29.58
2023-07-15T10:48:26.908Z,29.59
2023-07-15T10:49:26.901Z,29.59
2023-07-15T10:50:26.899Z,29.58
2023-07-15T10:51:26.879Z,29.59
2023-07-15T10:52:26.870Z,29.59
2023-07-15T10:53:26.864Z,29.60
2023-07-15T10:54:26.861Z,29.59
2023-07-15T10:55:26.866Z,29.60
2023-07-15T10:56:26.840Z,29.60
2023-07-15T10:57:32.854Z,29.63
2023-07-15T10:58:27.825Z,29.63
2023-07-15T10:59:26.820Z,29.63
2023-07-15T11:00:26.806Z,29.62
2023-07-15T11:01:26.996Z,29.63
2023-07-15T11:02:26.810Z,29.65
2023-07-15T11:03:26.804Z,29.65
2023-07-15T11:04:26.845Z,29.63
2023-07-15T11:05:26.785Z,29.66
2023-07-15T11:06:26.924Z,29.63
2023-07-15T11:07:26.773Z,29.65
2023-07-15T11:08:26.777Z,29.66
2023-07-15T11:09:26.771Z,29.66
2023-07-15T11:10:26.760Z,29.66
2023-07-15T11:11:26.766Z,29.68
2023-07-15T11:12:26.762Z,29.66
2023-07-15T11:13:26.753Z,29.66
2023-07-15T11:14:26.732Z,29.65
2023-07-15T11:15:26.755Z,29.69
2023-07-15T11:16:26.790Z,29.68
2023-07-15T11:17:26.935Z,29.69
2023-07-15T11:18:26.696Z,29.72
2023-07-15T11:19:26.689Z,29.70
2023-07-15T11:20:26.686Z,29.69
2023-07-15T11:21:26.687Z,29.70
2023-07-15T11:22:26.677Z,29.69
2023-07-15T11:23:26.661Z,29.70
2023-07-15T11:24:26.604Z,29.73
2023-07-15T11:25:26.607Z,29.70
2023-07-15T11:26:26.604Z,29.72
2023-07-15T11:27:26.574Z,29.72
2023-07-15T11:28:26.563Z,29.70
2023-07-15T11:29:26.550Z,29.72
2023-07-15T11:30:26.510Z,29.73
2023-07-15T11:31:26.617Z,29.73
2023-07-15T11:32:26.502Z,29.73
2023-07-15T11:33:26.490Z,29.73
2023-07-15T11:34:26.535Z,29.73
2023-07-15T11:35:26.550Z,29.76
2023-07-15T11:36:26.548Z,29.77
2023-07-15T11:37:26.556Z,29.75
2023-07-15T11:38:26.575Z,29.75
2023-07-15T11:39:26.591Z,29.76
2023-07-15T11:40:26.596Z,29.76
2023-07-15T11:41:26.642Z,29.73
2023-07-15T11:42:26.609Z,29.76
2023-07-15T11:43:26.673Z,29.79
2023-07-15T11:44:26.634Z,29.77
2023-07-15T11:45:26.651Z,29.79
2023-07-15T11:46:26.678Z,29.79
2023-07-15T11:47:26.728Z,29.77
2023-07-15T11:48:26.671Z,29.80
2023-07-15T11:49:26.691Z,29.79
2023-07-15T11:50:26.680Z,29.80
2023-07-15T11:51:29.678Z,29.79
2023-07-15T11:52:26.677Z,29.80
2023-07-15T11:53:26.665Z,29.79
2023-07-15T11:54:26.659Z,29.80
2023-07-15T11:55:26.665Z,29.77
2023-07-15T11:56:26.623Z,29.79
2023-07-15T11:57:26.616Z,29.81
2023-07-15T11:58:26.592Z,29.80
2023-07-15T11:59:26.573Z,29.81
2023-07-15T12:00:39.765Z,29.80
2023-07-15T12:01:27.592Z,29.80
2023-07-15T12:02:29.235Z,29.81
2023-07-15T12:03:26.501Z,29.80
2023-07-15T12:04:26.535Z,29.81
2023-07-15T12:05:26.464Z,29.81
2023-07-15T12:06:26.456Z,29.80
2023-07-15T12:07:26.434Z,29.81
2023-07-15T12:08:26.408Z,29.83
2023-07-15T12:09:26.402Z,29.79
2023-07-15T12:10:26.391Z,29.79
2023-07-15T12:11:26.368Z,29.81
2023-07-15T12:12:26.351Z,29.84
2023-07-15T12:13:26.345Z,29.84
2023-07-15T12:14:26.319Z,29.86
2023-07-15T12:15:26.291Z,29.81
2023-07-15T12:16:26.349Z,29.84
2023-07-15T12:17:26.294Z,29.83
2023-07-15T12:18:26.235Z,29.83
2023-07-15T12:19:26.222Z,29.84
2023-07-15T12:20:26.189Z,29.83
2023-07-15T12:21:26.183Z,29.84
2023-07-15T12:22:26.197Z,29.83
2023-07-15T12:23:26.153Z,29.87
2023-07-15T12:24:26.133Z,29.86
2023-07-15T12:25:26.115Z,29.84
2023-07-15T12:26:26.093Z,29.84
2023-07-15T12:27:26.082Z,29.84
2023-07-15T12:28:26.062Z,29.84
2023-07-15T12:29:26.041Z,29.84
2023-07-15T12:30:26.037Z,29.84
2023-07-15T12:31:26.032Z,29.86
2023-07-15T12:32:26.049Z,29.84
2023-07-15T12:33:25.995Z,29.86
2023-07-15T12:34:25.974Z,29.87
2023-07-15T12:35:25.976Z,29.86
2023-07-15T12:36:25.941Z,29.87
2023-07-15T12:37:25.925Z,29.84
2023-07-15T12:38:25.906Z,29.89
2023-07-15T12:39:25.896Z,29.83
2023-07-15T12:40:25.874Z,29.87
2023-07-15T12:41:25.858Z,29.87
2023-07-15T12:42:25.841Z,29.89
2023-07-15T12:43:25.858Z,29.87
2023-07-15T12:44:25.801Z,29.86
2023-07-15T12:45:25.795Z,29.86
2023-07-15T12:46:25.862Z,29.87
2023-07-15T12:47:25.799Z,29.87
2023-07-15T12:48:25.735Z,29.87
2023-07-15T12:49:25.702Z,29.86
2023-07-15T12:50:25.687Z,29.87
2023-07-15T12:51:25.665Z,29.87
2023-07-15T12:52:25.652Z,29.89